Marola — IBFL — position and weather

sailwx.info

Track history (hours):
 
Tides and Currents Weather Stations Pressure Air Temp Water Temp Dewpoint Dewpoint Depression Visibility Wind Speed Wind Dir Waves Ship Positions

Marola

Last reported at 2017-Apr-15 06:30 UTC. Time now 2017-Apr-24 20:57 UTC.
Position S 24°26' W 046°13'.
Warning: this ship's position is 9 days out of date.

Length 180 m; draft 7 m.

Type: Ship (hazmat cat C). MMSI: 247094900.

Date/timePositionNaut miles runAvg speedWind from/ knotsBaromVisibWave heightAir tempDewpointWater temp
2017-Apr-15 06:30S 24°26' W 046°13'714.5
2017-Apr-15 06:00S 24°20' W 046°17'714.9
2017-Apr-15 05:31S 24°14' W 046°21'713.3
2017-Apr-15 05:01S 24°07' W 046°23'713.4
2017-Apr-15 04:30S 24°01' W 046°21'4 7.4
2017-Apr-15 03:59S 23°58' W 046°17'2 0.1
2017-Apr-13 17:17S 23°57' W 046°19'2 8.3
2017-Apr-13 17:00S 23°59' W 046°17'4 7.7
2017-Apr-13 16:31S 24°01' W 046°21'3 6.7
2017-Apr-13 16:00S 24°04' W 046°22'510.3
2017-Apr-13 15:30S 24°09' W 046°23'611.9
2017-Apr-13 15:00S 24°14' W 046°19'4 3.7
2017-Apr-13 14:00S 24°15' W 046°15'0 0.1
2017-Apr-13 13:31S 24°15' W 046°15'0 0.0
2017-Apr-13 13:00S 24°15' W 046°15'0 0.1
2017-Apr-13 12:30S 24°15' W 046°15'2 3.8
2017-Apr-13 12:01S 24°17' W 046°15'611.4
2017-Apr-13 11:31S 24°22' W 046°14'612.1
2017-Apr-13 11:00S 24°28' W 046°11'3 6.5
2017-Apr-13 10:30S 24°30' W 046°08'  
Track history (hours):
 
Tides and Currents Weather Stations Pressure Air Temp Water Temp Dewpoint Dewpoint Depression Visibility Wind Speed Wind Dir Waves Ship Positions

Marola

Last reported at 2017-Apr-15 06:30 UTC. Time now 2017-Apr-24 20:57 UTC.
Position S 24°26' W 046°13'.
Warning: this ship's position is 9 days out of date.

Length 180 m; draft 7 m.

Type: Ship (hazmat cat C). MMSI: 247094900.

Date/timePositionNaut miles runAvg speedWind from/ knotsBaromVisibWave heightAir tempDewpointWater temp
2017-Apr-15 06:30S 24°26' W 046°13'714.5
2017-Apr-15 06:00S 24°20' W 046°17'714.9
2017-Apr-15 05:31S 24°14' W 046°21'713.3
2017-Apr-15 05:01S 24°07' W 046°23'713.4
2017-Apr-15 04:30S 24°01' W 046°21'4 7.4
2017-Apr-15 03:59S 23°58' W 046°17'2 0.1
2017-Apr-13 17:17S 23°57' W 046°19'2 8.3
2017-Apr-13 17:00S 23°59' W 046°17'4 7.7
2017-Apr-13 16:31S 24°01' W 046°21'3 6.7
2017-Apr-13 16:00S 24°04' W 046°22'510.3
2017-Apr-13 15:30S 24°09' W 046°23'611.9
2017-Apr-13 15:00S 24°14' W 046°19'4 3.7
2017-Apr-13 14:00S 24°15' W 046°15'0 0.1
2017-Apr-13 13:31S 24°15' W 046°15'0 0.0
2017-Apr-13 13:00S 24°15' W 046°15'0 0.1
2017-Apr-13 12:30S 24°15' W 046°15'2 3.8
2017-Apr-13 12:01S 24°17' W 046°15'611.4
2017-Apr-13 11:31S 24°22' W 046°14'612.1
2017-Apr-13 11:00S 24°28' W 046°11'3 6.5
2017-Apr-13 10:30S 24°30' W 046°08'  

Dump ship's entire track history